createdAt,value
2023-05-14T00:02:19.543Z,98784.55
2023-05-14T00:05:18.413Z,98782.86
2023-05-14T00:08:17.161Z,98788.01
2023-05-14T00:11:17.208Z,98782.98
2023-05-14T00:14:15.940Z,98780.84
2023-05-14T00:17:15.820Z,98783.54
2023-05-14T00:20:15.570Z,98784.71
2023-05-14T00:23:14.383Z,98787.73
2023-05-14T00:26:13.189Z,98782.95
2023-05-14T00:29:12.371Z,98782.09
2023-05-14T00:32:19.543Z,98781.48
2023-05-14T00:35:18.432Z,98784.45
2023-05-14T00:38:17.189Z,98780.85
2023-05-14T00:41:16.008Z,98779.58
2023-05-14T00:44:16.110Z,98782.31
2023-05-14T00:47:15.547Z,98779.73
2023-05-14T00:50:14.317Z,98778.52
2023-05-14T00:53:13.091Z,98778.91
2023-05-14T00:56:11.919Z,98788.59
2023-05-14T00:59:11.667Z,98791.01
2023-05-14T01:02:11.433Z,98787.54
2023-05-14T01:05:10.212Z,98790.16
2023-05-14T01:08:12.239Z,98787.52
2023-05-14T01:11:05.632Z,98790.86
2023-05-14T01:13:59.553Z,98788.09
2023-05-14T01:16:58.592Z,98787.12
2023-05-14T01:20:00.005Z,98786.64
2023-05-14T01:22:58.759Z,98782.41
2023-05-14T01:25:58.615Z,98780.02
2023-05-14T01:29:03.685Z,98782.24
2023-05-14T01:32:04.255Z,98785.69
2023-05-14T01:35:03.030Z,98784.70
2023-05-14T01:38:01.924Z,98782.70
2023-05-14T01:41:02.229Z,98784.06
2023-05-14T01:44:01.645Z,98787.34
2023-05-14T01:47:01.427Z,98781.55
2023-05-14T01:50:00.263Z,98783.83
2023-05-14T01:53:07.168Z,98782.79
2023-05-14T01:56:06.005Z,98781.66
2023-05-14T01:58:58.462Z,98780.15
2023-05-14T02:02:05.710Z,98782.20
2023-05-14T02:05:06.906Z,98774.55
2023-05-14T02:08:07.260Z,98769.16
2023-05-14T02:11:06.045Z,98768.12
2023-05-14T02:14:05.486Z,98766.09
2023-05-14T02:16:58.047Z,98767.48
2023-05-14T02:19:57.774Z,98764.67
2023-05-14T02:22:57.540Z,98763.95
2023-05-14T02:25:57.421Z,98761.67
2023-05-14T02:28:57.212Z,98758.14
2023-05-14T02:31:59.738Z,98753.38
2023-05-14T02:34:59.685Z,98749.08
2023-05-14T02:37:59.540Z,98742.29
2023-05-14T02:40:59.306Z,98737.41
2023-05-14T02:43:59.798Z,98738.39
2023-05-14T02:46:59.670Z,98734.55
2023-05-14T02:49:59.549Z,98729.41
2023-05-14T02:53:06.835Z,98725.33
2023-05-14T02:56:06.028Z,98725.32
2023-05-14T02:59:06.146Z,98725.29
2023-05-14T03:02:05.775Z,98726.89
2023-05-14T03:05:05.164Z,98728.11
2023-05-14T03:08:06.012Z,98724.82
2023-05-14T03:11:04.776Z,98723.48
2023-05-14T03:13:55.416Z,98717.87
2023-05-14T03:17:01.593Z,98716.96
2023-05-14T03:20:00.999Z,98716.33
2023-05-14T03:22:59.738Z,98715.16
2023-05-14T03:25:59.557Z,98719.41
2023-05-14T03:28:58.334Z,98726.04
2023-05-14T03:32:00.450Z,98730.48
2023-05-14T03:34:59.224Z,98729.35
2023-05-14T03:37:58.058Z,98732.89
2023-05-14T03:40:50.686Z,98735.89
2023-05-14T03:43:49.506Z,98733.83
2023-05-14T03:46:51.337Z,98731.42
2023-05-14T03:49:43.360Z,98729.92
2023-05-14T03:52:42.123Z,98722.83
2023-05-14T03:55:41.066Z,98718.45
2023-05-14T03:58:41.899Z,98717.62
2023-05-14T04:01:40.743Z,98720.16
2023-05-14T04:04:40.986Z,98718.68
2023-05-14T04:07:39.857Z,98712.67
2023-05-14T04:10:39.027Z,98712.90
2023-05-14T04:13:33.215Z,98707.09
2023-05-14T04:16:27.186Z,98699.17
2023-05-14T04:19:26.028Z,98703.51
2023-05-14T04:22:24.842Z,98705.16
2023-05-14T04:25:25.548Z,98703.38
2023-05-14T04:28:25.362Z,98702.77
2023-05-14T04:31:24.162Z,98705.73
2023-05-14T04:34:24.041Z,98710.05
2023-05-14T04:37:22.822Z,98708.93
2023-05-14T04:40:21.947Z,98709.16
2023-05-14T04:43:29.663Z,98712.23
2023-05-14T04:46:29.662Z,98713.15
2023-05-14T04:49:28.496Z,98709.48
2023-05-14T04:52:29.198Z,98709.14
2023-05-14T04:55:36.385Z,98710.39
2023-05-14T04:58:36.081Z,98711.17
2023-05-14T05:01:34.896Z,98709.73
2023-05-14T05:04:34.755Z,98700.48
2023-05-14T05:07:35.381Z,98698.83
2023-05-14T05:10:34.306Z,98702.33
2023-05-14T05:13:33.111Z,98706.92
2023-05-14T05:16:32.055Z,98704.56
2023-05-14T05:19:43.104Z,98701.30
2023-05-14T05:22:35.237Z,98706.30
2023-05-14T05:25:34.040Z,98700.26
2023-05-14T05:28:26.659Z,98695.25
2023-05-14T05:31:25.986Z,98693.64
2023-05-14T05:34:24.852Z,98693.35
2023-05-14T05:37:24.659Z,98688.55
2023-05-14T05:40:31.993Z,98686.54
2023-05-14T05:43:30.805Z,98684.45
2023-05-14T05:46:38.228Z,98680.80
2023-05-14T05:49:37.051Z,98678.77
2023-05-14T05:52:35.877Z,98678.89
2023-05-14T05:55:35.804Z,98679.19
2023-05-14T05:58:35.629Z,98679.28
2023-05-14T06:01:38.477Z,98679.59
2023-05-14T06:04:45.834Z,98682.33
2023-05-14T06:07:45.647Z,98674.33
2023-05-14T06:10:48.135Z,98671.29
2023-05-14T06:13:47.428Z,98670.97
2023-05-14T06:16:46.219Z,98675.48
2023-05-14T06:19:45.077Z,98672.77
2023-05-14T06:22:45.984Z,98670.23
2023-05-14T06:25:44.829Z,98677.86
2023-05-14T06:28:43.762Z,98674.98
2023-05-14T06:31:43.653Z,98671.73
2023-05-14T06:34:42.554Z,98667.54
2023-05-14T06:37:49.875Z,98666.40
2023-05-14T06:40:57.142Z,98658.56
2023-05-14T06:43:57.483Z,98651.20
2023-05-14T06:46:56.280Z,98655.27
2023-05-14T06:49:55.157Z,98647.27
2023-05-14T06:52:54.012Z,98651.36
2023-05-14T06:55:52.859Z,98651.21
2023-05-14T06:58:52.626Z,98651.56
2023-05-14T07:01:50.903Z,98652.48
2023-05-14T07:04:51.085Z,98649.98
2023-05-14T07:07:50.993Z,98654.05
2023-05-14T07:10:49.791Z,98658.07
2023-05-14T07:13:48.678Z,98654.19
2023-05-14T07:16:41.512Z,98650.30
2023-05-14T07:19:40.424Z,98654.52
2023-05-14T07:22:47.601Z,98659.10
2023-05-14T07:25:46.389Z,98665.61
2023-05-14T07:28:45.180Z,98670.64
2023-05-14T07:31:37.792Z,98671.02
2023-05-14T07:34:36.612Z,98677.85
2023-05-14T07:37:35.900Z,98668.34
2023-05-14T07:40:29.442Z,98657.47
2023-05-14T07:43:28.353Z,98660.52
2023-05-14T07:46:18.788Z,98652.64
2023-05-14T07:49:18.608Z,98647.04
2023-05-14T07:52:18.376Z,98646.92
2023-05-14T07:55:17.197Z,98637.23
2023-05-14T07:58:24.484Z,98637.91
2023-05-14T08:01:23.270Z,98631.41
2023-05-14T08:04:30.514Z,98632.30
2023-05-14T08:07:38.393Z,98633.48
2023-05-14T08:10:37.766Z,98635.05
2023-05-14T08:13:45.046Z,98629.09
2023-05-14T08:16:46.845Z,98624.48
2023-05-14T08:19:46.703Z,98618.23
2023-05-14T08:22:49.224Z,98613.55
2023-05-14T08:25:48.521Z,98612.08
2023-05-14T08:28:47.439Z,98601.98
2023-05-14T08:31:46.267Z,98598.49
2023-05-14T08:34:53.535Z,98607.36
2023-05-14T08:37:56.410Z,98603.88
2023-05-14T08:40:52.027Z,98602.73
2023-05-14T08:43:54.387Z,98607.23
2023-05-14T08:46:54.341Z,98600.55
2023-05-14T08:49:45.851Z,98605.38
2023-05-14T08:52:45.682Z,98595.10
2023-05-14T08:55:51.374Z,98595.95
2023-05-14T08:58:51.042Z,98593.73
2023-05-14T09:01:51.584Z,98586.16
2023-05-14T09:04:42.201Z,98584.03
2023-05-14T09:07:41.331Z,98578.45
2023-05-14T09:10:41.372Z,98578.25
2023-05-14T09:13:48.704Z,98578.89
2023-05-14T09:16:51.574Z,98577.09
2023-05-14T09:19:58.903Z,98567.67
2023-05-14T09:22:57.796Z,98570.48
2023-05-14T09:26:05.668Z,98561.14
2023-05-14T09:29:05.455Z,98559.28
2023-05-14T09:32:05.394Z,98556.27
2023-05-14T09:35:05.381Z,98556.27
2023-05-14T09:38:04.211Z,98554.09
2023-05-14T09:41:04.110Z,98552.68
2023-05-14T09:44:11.369Z,98549.00
2023-05-14T09:47:10.190Z,98544.98
2023-05-14T09:50:09.119Z,98544.91
2023-05-14T09:53:10.735Z,98535.83
2023-05-14T09:56:10.603Z,98532.42
2023-05-14T09:59:09.411Z,98534.33
2023-05-14T10:02:08.269Z,98535.66
2023-05-14T10:05:07.121Z,98532.77
2023-05-14T10:08:09.440Z,98521.43
2023-05-14T10:11:16.716Z,98522.61
2023-05-14T10:14:19.428Z,98517.59
2023-05-14T10:17:18.517Z,98513.61
2023-05-14T10:20:18.933Z,98512.56
2023-05-14T10:23:09.978Z,98505.71
2023-05-14T10:26:08.798Z,98495.04
2023-05-14T10:29:08.718Z,98486.16
2023-05-14T10:32:09.648Z,98486.50
2023-05-14T10:35:04.593Z,98474.48
2023-05-14T10:38:04.112Z,98468.11
2023-05-14T10:41:03.110Z,98458.77
2023-05-14T10:44:01.909Z,98452.46
2023-05-14T10:47:01.833Z,98463.62
2023-05-14T10:50:04.724Z,98457.15
2023-05-14T10:53:03.996Z,98449.02
2023-05-14T10:56:11.174Z,98437.63
2023-05-14T10:59:10.723Z,98433.95
2023-05-14T11:02:17.631Z,98431.38
2023-05-14T11:05:17.552Z,98436.14
2023-05-14T11:08:01.314Z,98430.44
2023-05-14T11:11:00.148Z,98432.94
2023-05-14T11:13:58.939Z,98424.04
2023-05-14T11:16:59.205Z,98429.02
2023-05-14T11:19:58.004Z,98415.99
2023-05-14T11:22:56.844Z,98410.99
2023-05-14T11:25:57.073Z,98417.93
2023-05-14T11:28:55.980Z,98424.73
2023-05-14T11:31:54.803Z,98421.05
2023-05-14T11:34:54.603Z,98419.82
2023-05-14T11:37:55.281Z,98407.55
2023-05-14T11:41:02.624Z,98400.64
2023-05-14T11:44:09.840Z,98402.64
2023-05-14T11:47:09.672Z,98409.23
2023-05-14T11:50:11.217Z,98403.81
2023-05-14T11:53:18.898Z,98400.42
2023-05-14T11:56:18.651Z,98397.11
2023-05-14T11:59:21.579Z,98384.17
2023-05-14T12:02:21.629Z,98384.90
2023-05-14T12:05:23.485Z,98373.17
2023-05-14T12:08:23.018Z,98376.92
2023-05-14T12:11:21.864Z,98370.84
2023-05-14T12:14:20.770Z,98360.70
2023-05-14T12:17:20.782Z,98356.33
2023-05-14T12:20:15.519Z,98353.86
2023-05-14T12:23:14.341Z,98344.11
2023-05-14T12:26:14.392Z,98351.08
2023-05-14T12:29:11.762Z,98348.20
2023-05-14T12:32:11.592Z,98329.77
2023-05-14T12:35:13.642Z,98327.27
2023-05-14T12:38:05.924Z,98324.34
2023-05-14T12:41:04.881Z,98325.11
2023-05-14T12:44:12.117Z,98318.81
2023-05-14T12:47:11.023Z,98312.98
2023-05-14T12:50:12.049Z,98311.88
2023-05-14T12:53:10.815Z,98314.48
2023-05-14T12:56:12.827Z,98307.44
2023-05-14T12:59:12.617Z,98298.61
2023-05-14T13:02:11.411Z,98307.45
2023-05-14T13:05:11.259Z,98309.94
2023-05-14T13:08:10.153Z,98313.19
2023-05-14T13:11:02.246Z,98308.49
2023-05-14T13:14:09.582Z,98302.70
2023-05-14T13:17:09.537Z,98295.04
2023-05-14T13:20:08.494Z,98288.64
2023-05-14T13:23:08.000Z,98290.11
2023-05-14T13:26:06.816Z,98287.95
2023-05-14T13:29:06.676Z,98284.28
2023-05-14T13:32:13.959Z,98285.48
2023-05-14T13:35:13.871Z,98283.02
2023-05-14T13:38:13.753Z,98290.23
2023-05-14T13:41:15.809Z,98287.51
2023-05-14T13:44:15.654Z,98275.73
2023-05-14T13:47:20.779Z,98265.89
2023-05-14T13:50:28.017Z,98269.17
2023-05-14T13:53:26.819Z,98259.88
2023-05-14T13:56:26.693Z,98258.23
2023-05-14T13:59:28.185Z,98252.41
2023-05-14T14:02:35.661Z,98246.75
2023-05-14T14:05:29.560Z,98233.83
2023-05-14T14:08:30.110Z,98231.83
2023-05-14T14:11:37.408Z,98224.30
2023-05-14T14:14:36.256Z,98216.98
2023-05-14T14:17:35.207Z,98220.77
2023-05-14T14:20:35.257Z,98213.98
2023-05-14T14:23:38.813Z,98212.77
2023-05-14T14:26:38.631Z,98210.54
2023-05-14T14:29:38.566Z,98207.98
2023-05-14T14:32:38.575Z,98208.45
2023-05-14T14:35:37.495Z,98205.98
2023-05-14T14:38:44.871Z,98198.77
2023-05-14T14:41:44.645Z,98200.02
2023-05-14T14:44:44.506Z,98196.23
2023-05-14T14:47:44.375Z,98188.82
2023-05-14T14:50:44.367Z,98179.09
2023-05-14T14:53:44.468Z,98177.77
2023-05-14T14:56:43.659Z,98174.97
2023-05-14T14:59:35.003Z,98169.02
2023-05-14T15:02:33.853Z,98162.55
2023-05-14T15:05:32.835Z,98158.52
2023-05-14T15:08:30.655Z,98158.59
2023-05-14T15:11:32.445Z,98155.70
2023-05-14T15:14:31.322Z,98151.27
2023-05-14T15:17:37.938Z,98147.91
2023-05-14T15:20:37.360Z,98148.16
2023-05-14T15:23:44.625Z,98141.30
2023-05-14T15:26:44.578Z,98141.77
2023-05-14T15:29:44.408Z,98143.04
2023-05-14T15:32:44.448Z,98146.86
2023-05-14T15:35:44.705Z,98149.11
2023-05-14T15:38:37.308Z,98146.16
2023-05-14T15:41:29.384Z,98140.84
2023-05-14T15:44:38.847Z,98140.94
2023-05-14T15:47:39.710Z,98143.73
2023-05-14T15:50:48.960Z,98140.89
2023-05-14T15:53:51.292Z,98134.50
2023-05-14T15:56:51.366Z,98130.45
2023-05-14T15:59:50.188Z,98125.69
2023-05-14T16:02:49.089Z,98120.85
2023-05-14T16:05:50.898Z,98114.55
2023-05-14T16:08:49.827Z,98114.08
2023-05-14T16:11:49.984Z,98107.76
2023-05-14T16:14:51.161Z,98097.64
2023-05-14T16:17:58.371Z,98095.61
2023-05-14T16:20:49.222Z,98099.65
2023-05-14T16:23:48.049Z,98099.71
2023-05-14T16:26:46.931Z,98098.61
2023-05-14T16:29:45.920Z,98095.80
2023-05-14T16:32:49.805Z,98096.34
2023-05-14T16:35:49.694Z,98092.77
2023-05-14T16:39:06.135Z,98089.86
2023-05-14T16:42:06.081Z,98085.19
2023-05-14T16:45:06.103Z,98081.05
2023-05-14T16:48:05.520Z,98080.66
2023-05-14T16:51:04.523Z,98078.39
2023-05-14T16:54:06.359Z,98078.14
2023-05-14T16:57:07.413Z,98072.85
2023-05-14T17:00:06.310Z,98078.35
2023-05-14T17:03:13.641Z,98075.73
2023-05-14T17:06:20.936Z,98071.49
2023-05-14T17:09:20.245Z,98067.58
2023-05-14T17:12:19.062Z,98063.04
2023-05-14T17:15:26.468Z,98059.89
2023-05-14T17:18:25.340Z,98059.41
2023-05-14T17:21:32.683Z,98056.42
2023-05-14T17:24:32.497Z,98050.17
2023-05-14T17:27:39.561Z,98044.40
2023-05-14T17:30:46.906Z,98042.34
2023-05-14T17:33:46.725Z,98037.48
2023-05-14T17:36:45.518Z,98037.83
2023-05-14T17:39:52.906Z,98035.20
2023-05-14T17:42:52.685Z,98040.06
2023-05-14T17:45:54.322Z,98045.75
2023-05-14T17:49:01.642Z,98047.55
2023-05-14T17:52:02.206Z,98057.85
2023-05-14T17:55:10.532Z,98055.36
2023-05-14T17:58:09.479Z,98066.08
2023-05-14T18:01:08.312Z,98040.79
2023-05-14T18:04:15.761Z,98030.73
2023-05-14T18:07:15.670Z,98018.41
2023-05-14T18:10:16.006Z,98021.67
2023-05-14T18:13:14.793Z,98020.02
2023-05-14T18:16:14.632Z,98016.84
2023-05-14T18:19:22.081Z,98015.41
2023-05-14T18:22:20.888Z,98024.17
2023-05-14T18:25:28.135Z,98029.48
2023-05-14T18:28:26.967Z,98031.42
2023-05-14T18:31:26.404Z,98046.17
2023-05-14T18:34:25.213Z,98058.26
2023-05-14T18:37:24.054Z,98064.93
2023-05-14T18:40:22.983Z,98059.46
2023-05-14T18:43:22.860Z,98057.35
2023-05-14T18:46:23.841Z,98064.41
2023-05-14T18:49:23.959Z,98058.02
2023-05-14T18:52:22.826Z,98051.58
2023-05-14T18:55:23.751Z,98036.54
2023-05-14T18:58:31.047Z,98058.85
2023-05-14T19:01:38.403Z,98062.20
2023-05-14T19:04:52.442Z,98071.26
2023-05-14T19:07:51.941Z,98069.10
2023-05-14T19:10:51.202Z,98075.14
2023-05-14T19:13:49.973Z,98075.29
2023-05-14T19:16:57.243Z,98089.00
2023-05-14T19:19:59.040Z,98088.53
2023-05-14T19:22:56.616Z,98087.63
2023-05-14T19:25:55.403Z,98086.63
2023-05-14T19:28:54.975Z,98086.95
2023-05-14T19:31:47.075Z,98094.17
2023-05-14T19:34:45.974Z,98091.50
2023-05-14T19:37:44.830Z,98089.53
2023-05-14T19:40:45.254Z,98090.95
2023-05-14T19:43:39.332Z,98085.41
2023-05-14T19:46:38.904Z,98083.13
2023-05-14T19:49:38.661Z,98086.64
2023-05-14T19:52:37.614Z,98089.44
2023-05-14T19:55:37.508Z,98086.33
2023-05-14T19:58:44.793Z,98085.39
2023-05-14T20:01:44.646Z,98083.98
2023-05-14T20:04:45.291Z,98075.16
2023-05-14T20:07:44.674Z,98067.88
2023-05-14T20:10:43.496Z,98058.98
2023-05-14T20:13:48.178Z,98050.90
2023-05-14T20:16:47.201Z,98037.73
2023-05-14T20:19:46.868Z,98025.23
2023-05-14T20:22:47.033Z,98022.80
2023-05-14T20:25:45.831Z,98017.45
2023-05-14T20:28:53.086Z,98013.77
2023-05-14T20:31:51.869Z,98000.91
2023-05-14T20:34:52.883Z,97994.06
2023-05-14T20:37:59.762Z,97990.35
2023-05-14T20:41:00.149Z,97979.09
2023-05-14T20:43:59.008Z,97968.35
2023-05-14T20:46:59.362Z,97965.39
2023-05-14T20:50:06.663Z,97962.73
2023-05-14T20:53:05.523Z,97962.60
2023-05-14T20:56:12.780Z,97967.36
2023-05-14T20:59:12.570Z,97958.12
2023-05-14T21:02:11.457Z,97945.06
2023-05-14T21:05:10.898Z,97933.23
2023-05-14T21:08:10.735Z,97926.49
2023-05-14T21:11:09.499Z,97916.96
2023-05-14T21:14:09.823Z,97904.33
2023-05-14T21:17:09.663Z,97895.70
2023-05-14T21:20:09.569Z,97890.48
2023-05-14T21:23:08.429Z,97887.79
2023-05-14T21:26:07.161Z,97886.73
2023-05-14T21:29:05.912Z,97883.65
2023-05-14T21:32:05.804Z,97877.92
2023-05-14T21:35:06.247Z,97875.30
2023-05-14T21:38:05.034Z,97868.31
2023-05-14T21:41:05.320Z,97872.44
2023-05-14T21:44:04.050Z,97873.80
2023-05-14T21:47:02.751Z,97872.53
2023-05-14T21:50:01.577Z,97855.68
2023-05-14T21:53:00.329Z,97857.05
2023-05-14T21:55:59.059Z,97852.73
2023-05-14T21:59:06.170Z,97855.27
2023-05-14T22:02:07.717Z,97862.49
2023-05-14T22:05:11.829Z,97861.46
2023-05-14T22:08:19.056Z,97860.02
2023-05-14T22:11:17.822Z,97846.86
2023-05-14T22:14:17.546Z,97838.36
2023-05-14T22:17:19.321Z,97832.48
2023-05-14T22:20:18.118Z,97828.80
2023-05-14T22:23:16.865Z,97814.87
2023-05-14T22:26:17.212Z,97799.48
2023-05-14T22:29:16.954Z,97792.97
2023-05-14T22:32:15.959Z,97804.55
2023-05-14T22:35:17.630Z,97803.48
2023-05-14T22:38:16.827Z,97800.28
2023-05-14T22:41:17.688Z,97805.66
2023-05-14T22:44:20.177Z,97816.22
2023-05-14T22:47:18.863Z,97816.34
2023-05-14T22:50:18.670Z,97813.55
2023-05-14T22:53:18.448Z,97798.53
2023-05-14T22:56:20.468Z,97790.17
2023-05-14T22:59:23.706Z,97794.12
2023-05-14T23:02:22.854Z,97796.16
2023-05-14T23:05:22.890Z,97800.70
2023-05-14T23:08:21.903Z,97798.57
2023-05-14T23:11:27.928Z,97799.33
2023-05-14T23:14:28.155Z,97801.13
2023-05-14T23:17:26.954Z,97799.92
2023-05-14T23:20:26.707Z,97792.13
2023-05-14T23:23:28.091Z,97781.78
2023-05-14T23:26:27.201Z,97775.26
2023-05-14T23:29:27.740Z,97767.05
2023-05-14T23:32:27.533Z,97758.79
2023-05-14T23:35:26.872Z,97748.45
2023-05-14T23:38:27.520Z,97753.80
2023-05-14T23:41:26.240Z,97746.49
2023-05-14T23:44:25.006Z,97740.74
2023-05-14T23:47:17.710Z,97742.04
2023-05-14T23:50:17.370Z,97735.40
2023-05-14T23:53:24.505Z,97735.55
2023-05-14T23:56:23.256Z,97725.30
2023-05-14T23:59:16.129Z,97721.44
